createdAt,value
2024-02-13T00:02:17.162Z,-3.10
2024-02-13T00:07:23.361Z,-3.10
2024-02-13T00:12:28.143Z,-3.10
2024-02-13T00:17:32.773Z,-3.00
2024-02-13T00:22:38.767Z,-3.00
2024-02-13T00:27:44.563Z,-2.90
2024-02-13T00:32:49.033Z,-3.00
2024-02-13T00:37:55.008Z,-3.00
2024-02-13T00:42:59.438Z,-3.00
2024-02-13T00:48:04.082Z,-3.10
2024-02-13T00:53:12.308Z,-3.10
2024-02-13T00:58:16.813Z,-3.10
2024-02-13T01:03:21.314Z,-3.10
2024-02-13T01:08:27.261Z,-3.10
2024-02-13T01:13:31.819Z,-3.10
2024-02-13T01:18:37.175Z,-3.00
2024-02-13T01:23:43.182Z,-3.10
2024-02-13T01:28:48.002Z,-3.00
2024-02-13T01:33:52.876Z,-3.10
2024-02-13T01:39:04.317Z,-3.10
2024-02-13T01:44:08.720Z,-3.00
2024-02-13T01:49:13.433Z,-3.10
2024-02-13T01:54:19.925Z,-3.10
2024-02-13T01:59:27.416Z,-3.10
2024-02-13T02:04:34.556Z,-3.20
2024-02-13T02:09:40.576Z,-3.10
2024-02-13T02:14:45.310Z,-3.10
2024-02-13T02:19:49.858Z,-3.10
2024-02-13T02:24:56.669Z,-3.20
2024-02-13T02:30:02.920Z,-3.20
2024-02-13T02:35:08.424Z,-3.20
2024-02-13T02:40:13.626Z,-3.20
2024-02-13T02:45:19.729Z,-3.10
2024-02-13T02:50:25.129Z,-3.20
2024-02-13T02:55:31.093Z,-3.10
2024-02-13T03:00:37.997Z,-3.20
2024-02-13T03:05:45.480Z,-3.20
2024-02-13T03:10:50.214Z,-3.20
2024-02-13T03:15:56.397Z,-3.10
2024-02-13T03:21:00.956Z,-3.20
2024-02-13T03:26:05.524Z,-3.20
2024-02-13T03:31:11.777Z,-3.10
2024-02-13T03:36:18.638Z,-3.10
2024-02-13T03:41:23.599Z,-3.20
2024-02-13T03:46:29.549Z,-3.10
2024-02-13T03:51:34.071Z,-3.10
2024-02-13T03:56:39.934Z,-3.00
2024-02-13T04:01:46.441Z,-3.20
2024-02-13T04:06:50.932Z,-3.10
2024-02-13T04:11:55.448Z,-3.00
2024-02-13T04:17:01.398Z,-3.10
2024-02-13T04:22:06.305Z,-3.20
2024-02-13T04:27:10.774Z,-3.10
2024-02-13T04:32:16.781Z,-3.10
2024-02-13T04:37:21.239Z,-3.10
2024-02-13T04:42:34.040Z,-3.10
2024-02-13T04:47:40.051Z,-3.10
2024-02-13T04:52:44.925Z,-3.10
2024-02-13T04:57:49.482Z,-3.10
2024-02-13T05:03:04.941Z,-3.10
2024-02-13T05:08:09.740Z,-3.20
2024-02-13T05:13:16.689Z,-3.10
2024-02-13T05:18:22.852Z,-3.30
2024-02-13T05:23:28.940Z,-3.20
2024-02-13T05:28:34.691Z,-3.20
2024-02-13T05:33:41.057Z,-3.20
2024-02-13T05:38:46.478Z,-3.10
2024-02-13T05:43:50.927Z,-3.10
2024-02-13T05:49:00.661Z,-3.10
2024-02-13T05:54:06.867Z,-3.20
2024-02-13T05:59:11.385Z,-3.10
2024-02-13T06:04:17.370Z,-3.10
2024-02-13T06:09:22.981Z,-3.20
2024-02-13T06:14:27.301Z,-3.20
2024-02-13T06:19:33.435Z,-3.30
2024-02-13T06:24:38.166Z,-3.20
2024-02-13T06:29:42.673Z,-3.20
2024-02-13T06:34:48.670Z,-3.20
2024-02-13T06:39:53.642Z,-3.30
2024-02-13T06:44:58.185Z,-3.20
2024-02-13T06:50:04.476Z,-3.20
2024-02-13T06:55:10.406Z,-3.20
2024-02-13T07:00:16.238Z,-3.20
2024-02-13T07:05:22.387Z,-3.20
2024-02-13T07:10:27.007Z,-3.10
2024-02-13T07:15:31.910Z,-3.10
2024-02-13T07:20:37.953Z,-3.20
2024-02-13T07:25:42.422Z,-3.10
2024-02-13T07:30:46.844Z,-3.20
2024-02-13T07:35:52.873Z,-3.10
2024-02-13T07:40:59.728Z,-3.20
2024-02-13T07:46:07.506Z,-3.10
2024-02-13T07:51:13.594Z,-3.10
2024-02-13T07:56:20.507Z,-3.00
2024-02-13T08:01:25.195Z,-3.00
2024-02-13T08:06:31.196Z,-3.10
2024-02-13T08:11:36.348Z,-2.90
2024-02-13T08:16:41.161Z,-2.80
2024-02-13T08:21:47.207Z,-2.90
2024-02-13T08:26:51.765Z,-2.70
2024-02-13T08:31:56.372Z,-2.60
2024-02-13T08:37:02.403Z,-2.60
2024-02-13T08:42:08.555Z,-2.60
2024-02-13T08:47:13.399Z,-2.50
2024-02-13T08:52:19.379Z,-2.40
2024-02-13T08:57:24.006Z,-2.40
2024-02-13T09:02:28.570Z,-2.30
2024-02-13T09:07:34.522Z,-2.20
2024-02-13T09:12:39.047Z,-2.10
2024-02-13T09:17:45.077Z,-2.10
2024-02-13T09:22:52.341Z,-1.90
2024-02-13T09:27:59.567Z,-1.90
2024-02-13T09:33:05.584Z,-1.80
2024-02-13T09:38:12.974Z,-1.70
2024-02-13T09:43:17.999Z,-1.70
2024-02-13T09:48:25.553Z,-1.60
2024-02-13T09:53:32.577Z,-1.50
2024-02-13T09:58:37.965Z,-1.50
2024-02-13T10:03:43.489Z,-1.40
2024-02-13T10:08:54.018Z,-1.20
2024-02-13T10:13:58.496Z,-1.20
2024-02-13T10:19:03.846Z,-0.90
2024-02-13T10:24:14.203Z,-0.90
2024-02-13T10:29:19.354Z,-1.00
2024-02-13T10:34:25.450Z,-0.80
2024-02-13T10:39:33.696Z,-0.60
2024-02-13T10:44:45.313Z,-0.40
2024-02-13T10:49:55.902Z,-0.50
2024-02-13T10:55:07.792Z,-0.10
2024-02-13T11:00:16.882Z,0.40
2024-02-13T11:05:25.375Z,0.70
2024-02-13T11:10:36.553Z,0.80
2024-02-13T11:15:43.137Z,1.10
2024-02-13T11:20:52.728Z,0.90
2024-02-13T11:26:02.856Z,0.80
2024-02-13T11:31:16.387Z,1.10
2024-02-13T11:36:21.112Z,0.80
2024-02-13T11:41:27.329Z,1.00
2024-02-13T11:46:32.003Z,1.10
2024-02-13T11:51:38.494Z,1.00
2024-02-13T11:56:45.162Z,1.20
2024-02-13T12:01:50.273Z,1.40
2024-02-13T12:06:54.912Z,1.10
2024-02-13T12:12:01.525Z,1.00
2024-02-13T12:17:08.440Z,1.50
2024-02-13T12:22:15.288Z,1.70
2024-02-13T12:27:21.331Z,1.70
2024-02-13T12:32:27.050Z,1.70
2024-02-13T12:37:34.090Z,1.50
2024-02-13T12:42:41.116Z,1.30
2024-02-13T12:47:45.993Z,2.00
2024-02-13T12:52:51.202Z,2.50
2024-02-13T12:57:58.960Z,2.10
2024-02-13T13:03:03.530Z,1.90
2024-02-13T13:08:11.017Z,1.70
2024-02-13T13:13:19.099Z,1.30
2024-02-13T13:18:25.644Z,1.30
2024-02-13T13:23:30.318Z,1.20
2024-02-13T13:28:39.915Z,1.60
2024-02-13T13:33:44.587Z,1.90
2024-02-13T13:38:49.895Z,1.90
2024-02-13T13:43:55.795Z,1.40
2024-02-13T13:49:01.837Z,1.10
2024-02-13T13:54:07.944Z,1.00
2024-02-13T13:59:14.149Z,0.80
2024-02-13T14:04:18.734Z,0.80
2024-02-13T14:09:23.388Z,0.70
2024-02-13T14:14:29.342Z,0.40
2024-02-13T14:19:33.927Z,0.40
2024-02-13T14:24:38.433Z,0.30
2024-02-13T14:29:45.640Z,0.30
2024-02-13T14:34:50.184Z,0.30
2024-02-13T14:39:55.229Z,0.40
2024-02-13T14:45:02.250Z,0.20
2024-02-13T14:50:08.511Z,0.30
2024-02-13T14:55:15.040Z,0.20
2024-02-13T15:00:22.369Z,0.10
2024-02-13T15:05:26.928Z,-0.10
2024-02-13T15:10:31.683Z,0.00
2024-02-13T15:15:37.931Z,-0.10
2024-02-13T15:20:42.442Z,-0.40
2024-02-13T15:25:47.056Z,-0.50
2024-02-13T15:30:54.736Z,-0.50
2024-02-13T15:36:06.936Z,-0.60
2024-02-13T15:41:29.089Z,-0.50
2024-02-13T15:46:52.388Z,-0.60
2024-02-13T15:51:56.905Z,-0.60
2024-02-13T15:57:01.547Z,-0.70
2024-02-13T16:02:08.182Z,-0.70
2024-02-13T16:07:14.726Z,-0.80
2024-02-13T16:12:20.904Z,-0.80
2024-02-13T16:17:26.568Z,-1.00
2024-02-13T16:22:33.926Z,-1.00
2024-02-13T16:27:38.483Z,-1.00
2024-02-13T16:32:44.496Z,-1.00
2024-02-13T16:37:49.097Z,-1.20
2024-02-13T16:42:56.785Z,-1.20
2024-02-13T16:48:05.648Z,-1.30
2024-02-13T16:53:10.264Z,-1.40
2024-02-13T16:58:14.728Z,-1.40
2024-02-13T17:03:21.183Z,-1.30
2024-02-13T17:08:27.004Z,-1.40
2024-02-13T17:13:31.568Z,-1.50
2024-02-13T17:18:37.806Z,-1.50
2024-02-13T17:23:42.502Z,-1.50
2024-02-13T17:28:47.058Z,-1.50
2024-02-13T17:33:53.132Z,-1.60
2024-02-13T17:38:57.764Z,-1.60
2024-02-13T17:44:02.332Z,-1.60
2024-02-13T17:49:08.581Z,-1.60
2024-02-13T17:54:14.170Z,-1.70
2024-02-13T17:59:19.010Z,-1.80
2024-02-13T18:04:25.250Z,-1.70
2024-02-13T18:09:29.763Z,-1.80
2024-02-13T18:14:34.275Z,-2.20
2024-02-13T18:19:40.485Z,-2.10
2024-02-13T18:24:45.541Z,-1.90
2024-02-13T18:29:51.521Z,-1.90
2024-02-13T18:34:57.660Z,-1.80
2024-02-13T18:40:02.807Z,-1.80
2024-02-13T18:45:10.328Z,-2.00
2024-02-13T18:50:18.707Z,-2.00
2024-02-13T18:55:23.348Z,-2.00
2024-02-13T19:00:27.983Z,-2.10
2024-02-13T19:05:34.095Z,-2.10
2024-02-13T19:10:38.659Z,-2.10
2024-02-13T19:15:43.449Z,-2.10
2024-02-13T19:20:51.154Z,-2.10
2024-02-13T19:25:55.655Z,-2.10
2024-02-13T19:31:00.180Z,-2.20
2024-02-13T19:36:07.212Z,-2.20
2024-02-13T19:41:11.785Z,-2.20
2024-02-13T19:46:16.319Z,-2.10
2024-02-13T19:51:22.622Z,-2.10
2024-02-13T19:56:29.579Z,-2.10
2024-02-13T20:01:34.558Z,-2.20
2024-02-13T20:06:40.724Z,-2.30
2024-02-13T20:11:46.174Z,-2.20
2024-02-13T20:16:50.895Z,-2.20
2024-02-13T20:21:57.108Z,-2.40
2024-02-13T20:27:01.812Z,-2.40
2024-02-13T20:32:06.955Z,-2.30
2024-02-13T20:37:13.208Z,-2.30
2024-02-13T20:42:17.622Z,-2.30
2024-02-13T20:47:22.636Z,-2.20
2024-02-13T20:52:30.106Z,-2.20
2024-02-13T20:57:34.741Z,-2.20
2024-02-13T21:02:39.444Z,-2.30
2024-02-13T21:07:45.537Z,-2.40
2024-02-13T21:12:50.995Z,-2.50
2024-02-13T21:17:55.521Z,-2.60
2024-02-13T21:23:21.224Z,-2.60
2024-02-13T21:28:27.000Z,-2.80
2024-02-13T21:33:31.723Z,-2.90
2024-02-13T21:38:39.490Z,-3.10
2024-02-13T21:43:44.126Z,-3.20
2024-02-13T21:48:49.168Z,-3.30
2024-02-13T21:53:55.496Z,-3.40
2024-02-13T21:59:01.031Z,-3.60
2024-02-13T22:04:05.864Z,-3.60
2024-02-13T22:09:13.852Z,-3.70
2024-02-13T22:14:18.478Z,-3.80
2024-02-13T22:19:23.115Z,-4.00
2024-02-13T22:24:29.490Z,-4.10
2024-02-13T22:29:34.076Z,-4.30
2024-02-13T22:34:42.466Z,-4.20
2024-02-13T22:39:48.606Z,-4.20
2024-02-13T22:44:53.233Z,-4.20
2024-02-13T22:49:57.908Z,-4.10
2024-02-13T22:55:05.660Z,-4.00
2024-02-13T23:00:32.232Z,-4.00
2024-02-13T23:05:37.247Z,-3.90
2024-02-13T23:10:43.340Z,-3.80
2024-02-13T23:15:48.739Z,-3.80
2024-02-13T23:20:53.430Z,-3.80
2024-02-13T23:25:59.497Z,-3.90
2024-02-13T23:31:04.036Z,-3.90
2024-02-13T23:36:10.686Z,-3.80
2024-02-13T23:41:16.962Z,-4.00
2024-02-13T23:46:21.965Z,-4.00
2024-02-13T23:51:27.403Z,-3.90
2024-02-13T23:56:33.584Z,-3.90
